createdAt,value
2018-04-22T00:01:04.889Z,10.40
2018-04-22T00:03:32.567Z,9.17
2018-04-22T00:05:59.516Z,9.20
2018-04-22T00:08:26.449Z,9.67
2018-04-22T00:10:53.733Z,9.13
2018-04-22T00:13:19.963Z,9.57
2018-04-22T00:15:46.210Z,9.30
2018-04-22T00:18:12.391Z,10.30
2018-04-22T00:20:39.353Z,9.23
2018-04-22T00:23:06.280Z,10.47
2018-04-22T00:25:32.448Z,8.77
2018-04-22T00:27:58.625Z,8.60
2018-04-22T00:30:24.885Z,9.00
2018-04-22T00:32:51.801Z,9.67
2018-04-22T00:35:18.016Z,10.57
2018-04-22T00:37:44.211Z,8.23
2018-04-22T00:40:10.369Z,10.50
2018-04-22T00:42:36.690Z,8.93
2018-04-22T00:45:02.890Z,8.50
2018-04-22T00:47:30.151Z,8.00
2018-04-22T00:49:56.367Z,8.80
2018-04-22T00:52:22.600Z,8.80
2018-04-22T00:54:48.781Z,8.50
2018-04-22T00:57:14.988Z,8.53
2018-04-22T00:59:41.180Z,9.37
2018-04-22T01:02:07.883Z,9.53
2018-04-22T01:04:34.047Z,9.50
2018-04-22T01:07:00.255Z,8.60
2018-04-22T01:09:27.153Z,10.20
2018-04-22T01:11:53.342Z,9.00
2018-04-22T01:14:20.258Z,8.10
2018-04-22T01:16:46.523Z,7.93
2018-04-22T01:19:15.642Z,8.97
2018-04-22T01:21:41.922Z,8.90
2018-04-22T01:24:08.891Z,8.80
2018-04-22T01:26:35.118Z,8.20
2018-04-22T01:29:02.024Z,9.30
2018-04-22T01:31:28.305Z,8.60
2018-04-22T01:33:54.477Z,8.30
2018-04-22T01:36:20.682Z,9.20
2018-04-22T01:38:46.943Z,9.27
2018-04-22T01:41:13.922Z,9.47
2018-04-22T01:43:40.458Z,8.30
2018-04-22T01:46:07.052Z,9.33
2018-04-22T01:48:33.662Z,9.60
2018-04-22T01:51:00.261Z,9.33
2018-04-22T01:53:26.452Z,8.90
2018-04-22T01:55:52.664Z,9.40
2018-04-22T01:58:18.881Z,9.33
2018-04-22T02:00:45.065Z,8.47
2018-04-22T02:03:11.252Z,9.80
2018-04-22T02:05:37.452Z,9.10
2018-04-22T02:08:04.444Z,8.37
2018-04-22T02:10:30.648Z,9.40
2018-04-22T02:12:56.901Z,9.20
2018-04-22T02:15:23.088Z,9.50
2018-04-22T02:17:49.292Z,9.20
2018-04-22T02:20:16.197Z,8.70
2018-04-22T02:22:42.374Z,8.70
2018-04-22T02:25:09.265Z,10.70
2018-04-22T02:27:35.405Z,9.43
2018-04-22T02:30:01.643Z,8.50
2018-04-22T02:32:27.789Z,8.10
2018-04-22T02:34:53.962Z,9.47
2018-04-22T02:37:20.169Z,10.63
2018-04-22T02:39:48.092Z,8.87
2018-04-22T02:42:15.053Z,9.63
2018-04-22T02:44:41.235Z,7.73
2018-04-22T02:47:07.463Z,9.73
2018-04-22T02:49:33.676Z,10.00
2018-04-22T02:52:00.637Z,10.27
2018-04-22T02:54:27.533Z,9.33
2018-04-22T02:56:53.690Z,10.00
2018-04-22T02:59:20.252Z,9.90
2018-04-22T03:01:46.447Z,10.00
2018-04-22T03:04:12.985Z,9.47
2018-04-22T03:06:39.897Z,9.73
2018-04-22T03:09:06.075Z,10.30
2018-04-22T03:11:33.099Z,10.20
2018-04-22T03:14:00.007Z,10.07
2018-04-22T03:16:26.577Z,10.90
2018-04-22T03:18:53.125Z,9.70
2018-04-22T03:21:20.061Z,10.03
2018-04-22T03:23:46.977Z,9.80
2018-04-22T03:26:13.170Z,10.07
2018-04-22T03:28:39.362Z,9.13
2018-04-22T03:31:06.301Z,9.20
2018-04-22T03:33:33.237Z,9.37
2018-04-22T03:35:59.383Z,10.07
2018-04-22T03:38:26.312Z,9.90
2018-04-22T03:40:52.853Z,10.83
2018-04-22T03:43:19.780Z,10.70
2018-04-22T03:45:45.998Z,11.07
2018-04-22T03:48:12.220Z,11.23
2018-04-22T03:50:38.421Z,12.13
2018-04-22T03:53:04.571Z,11.90
2018-04-22T03:55:31.139Z,11.00
2018-04-22T03:57:58.085Z,10.53
2018-04-22T04:00:25.745Z,11.30
2018-04-22T04:02:51.976Z,11.80
2018-04-22T04:05:19.643Z,11.13
2018-04-22T04:07:45.852Z,10.70
2018-04-22T04:10:12.000Z,10.70
2018-04-22T04:12:38.161Z,11.57
2018-04-22T04:15:04.353Z,11.23
2018-04-22T04:17:30.555Z,11.10
2018-04-22T04:20:09.056Z,10.83
2018-04-22T04:22:44.333Z,11.27
2018-04-22T04:25:31.727Z,11.63
2018-04-22T04:27:57.964Z,9.67
2018-04-22T04:30:24.176Z,12.37
2018-04-22T04:32:50.332Z,11.53
2018-04-22T04:35:16.524Z,10.90
2018-04-22T04:37:42.692Z,11.73
2018-04-22T04:40:08.897Z,11.83
2018-04-22T04:42:35.800Z,11.90
2018-04-22T04:45:02.747Z,10.53
2018-04-22T04:47:29.664Z,11.23
2018-04-22T04:49:55.818Z,10.60
2018-04-22T04:52:22.738Z,12.57
2018-04-22T04:54:48.950Z,11.60
2018-04-22T04:57:15.144Z,12.17
2018-04-22T04:59:41.347Z,11.83
2018-04-22T05:02:08.317Z,12.40
2018-04-22T05:04:34.457Z,12.00
2018-04-22T05:07:00.664Z,11.00
2018-04-22T05:09:26.831Z,11.83
2018-04-22T05:11:53.093Z,11.40
2018-04-22T05:14:19.262Z,12.27
2018-04-22T05:16:45.481Z,10.57
2018-04-22T05:19:11.668Z,12.37
2018-04-22T05:21:37.908Z,10.83
2018-04-22T05:24:04.759Z,12.20
2018-04-22T05:26:31.721Z,11.83
2018-04-22T05:28:58.663Z,11.83
2018-04-22T05:31:25.550Z,11.77
2018-04-22T05:33:52.595Z,12.00
2018-04-22T05:36:18.802Z,11.63
2018-04-22T05:38:45.042Z,12.00
2018-04-22T05:41:11.226Z,13.10
2018-04-22T05:43:38.152Z,12.73
2018-04-22T05:46:04.336Z,13.20
2018-04-22T05:48:30.535Z,13.33
2018-04-22T05:50:57.426Z,12.50
2018-04-22T05:53:23.593Z,12.73
2018-04-22T05:55:50.547Z,12.73
2018-04-22T05:58:17.490Z,12.33
2018-04-22T06:00:44.421Z,12.43
2018-04-22T06:03:10.600Z,12.23
2018-04-22T06:05:36.773Z,14.30
2018-04-22T06:08:02.996Z,13.93
2018-04-22T06:10:29.168Z,15.00
2018-04-22T06:12:56.072Z,14.67
2018-04-22T06:15:22.456Z,14.30
2018-04-22T06:17:48.697Z,15.37
2018-04-22T06:20:14.872Z,16.20
2018-04-22T06:22:41.086Z,14.30
2018-04-22T06:25:07.257Z,14.57
2018-04-22T06:27:33.452Z,15.60
2018-04-22T06:29:59.669Z,14.20
2018-04-22T06:32:25.844Z,15.47
2018-04-22T06:34:52.070Z,16.33
2018-04-22T06:37:18.973Z,14.57
2018-04-22T06:39:45.191Z,14.90
2018-04-22T06:42:11.344Z,15.37
2018-04-22T06:44:37.591Z,14.87
2018-04-22T06:47:04.526Z,14.80
2018-04-22T06:49:31.904Z,16.80
2018-04-22T06:51:58.856Z,15.43
2018-04-22T06:54:25.064Z,15.03
2018-04-22T06:56:51.335Z,15.30
2018-04-22T06:59:17.513Z,14.87
2018-04-22T07:01:44.315Z,17.57
2018-04-22T07:04:10.529Z,15.80
2018-04-22T07:06:36.748Z,14.47
2018-04-22T07:09:02.973Z,14.30
2018-04-22T07:11:29.172Z,16.73
2018-04-22T07:13:55.432Z,15.20
2018-04-22T07:16:21.657Z,15.77
2018-04-22T07:18:48.692Z,16.07
2018-04-22T07:21:15.681Z,16.97
2018-04-22T07:23:41.862Z,18.03
2018-04-22T07:26:08.794Z,19.07
2018-04-22T07:28:34.989Z,16.90
2018-04-22T07:31:01.177Z,17.40
2018-04-22T07:33:27.366Z,15.60
2018-04-22T07:35:53.576Z,17.70
2018-04-22T07:38:19.771Z,19.07
2018-04-22T07:40:45.948Z,17.97
2018-04-22T07:43:12.162Z,18.30
2018-04-22T07:45:38.425Z,17.70
2018-04-22T07:48:05.429Z,17.80
2018-04-22T07:50:31.606Z,17.93
2018-04-22T07:52:58.541Z,17.63
2018-04-22T07:55:25.443Z,18.20
2018-04-22T07:58:06.541Z,16.40
2018-04-22T08:00:32.750Z,17.67
2018-04-22T08:02:59.004Z,17.50
2018-04-22T08:05:25.222Z,17.40
2018-04-22T08:07:51.646Z,16.87
2018-04-22T08:10:17.853Z,16.97
2018-04-22T08:12:44.073Z,17.17
2018-04-22T08:15:10.434Z,16.97
2018-04-22T08:17:36.742Z,17.13
2018-04-22T08:20:03.022Z,17.00
2018-04-22T08:22:30.598Z,16.63
2018-04-22T08:24:56.908Z,17.90
2018-04-22T08:27:23.377Z,18.10
2018-04-22T08:29:50.378Z,17.50
2018-04-22T08:32:31.512Z,16.27
2018-04-22T08:34:58.932Z,18.83
2018-04-22T08:37:25.194Z,18.50
2018-04-22T08:39:52.208Z,19.73
2018-04-22T08:42:19.243Z,20.17
2018-04-22T08:44:45.486Z,15.70
2018-04-22T08:47:12.288Z,19.63
2018-04-22T08:49:38.512Z,14.33
2018-04-22T08:52:04.739Z,15.00
2018-04-22T08:54:31.914Z,20.07
2018-04-22T08:56:58.104Z,14.60
2018-04-22T08:59:25.040Z,16.70
2018-04-22T09:01:51.990Z,20.00
2018-04-22T09:04:18.922Z,18.20
2018-04-22T09:06:45.988Z,20.93
2018-04-22T09:09:12.210Z,15.10
2018-04-22T09:11:39.176Z,17.60
2018-04-22T09:14:05.447Z,22.57
2018-04-22T09:16:31.611Z,16.60
2018-04-22T09:18:58.649Z,18.07
2018-04-22T09:21:25.650Z,17.40
2018-04-22T09:23:52.852Z,14.73
2018-04-22T09:26:22.058Z,17.07
2018-04-22T09:28:48.976Z,17.50
2018-04-22T09:31:15.210Z,15.27
2018-04-22T09:33:41.406Z,16.33
2018-04-22T09:36:08.547Z,18.70
2018-04-22T09:38:34.773Z,19.57
2018-04-22T09:41:00.970Z,15.03
2018-04-22T09:43:27.958Z,19.40
2018-04-22T09:45:54.170Z,14.40
2018-04-22T09:48:20.620Z,15.13
2018-04-22T09:50:47.817Z,18.97
2018-04-22T09:53:14.799Z,16.70
2018-04-22T09:55:41.011Z,15.90
2018-04-22T09:58:07.274Z,19.20
2018-04-22T10:00:33.636Z,20.17
2018-04-22T10:03:06.030Z,21.60
2018-04-22T10:05:38.377Z,27.50
2018-04-22T10:08:04.612Z,29.77
2018-04-22T10:10:30.831Z,42.87
2018-04-22T10:12:57.282Z,33.07
2018-04-22T10:15:23.501Z,27.83
2018-04-22T10:17:49.727Z,21.93
2018-04-22T10:20:16.060Z,23.40
2018-04-22T10:22:42.468Z,16.67
2018-04-22T10:25:08.749Z,16.90
2018-04-22T10:27:35.188Z,19.60
2018-04-22T10:30:02.250Z,18.47
2018-04-22T10:32:29.240Z,14.23
2018-04-22T10:34:55.553Z,14.47
2018-04-22T10:37:22.832Z,19.70
2018-04-22T10:39:49.009Z,14.13
2018-04-22T10:42:15.921Z,18.53
2018-04-22T10:44:42.093Z,13.40
2018-04-22T10:47:08.365Z,15.53
2018-04-22T10:49:34.638Z,17.00
2018-04-22T10:52:01.644Z,13.50
2018-04-22T10:54:27.877Z,13.37
2018-04-22T10:56:54.074Z,11.83
2018-04-22T10:59:20.256Z,12.10
2018-04-22T11:01:46.529Z,14.20
2018-04-22T11:04:12.743Z,16.10
2018-04-22T11:06:39.675Z,12.37
2018-04-22T11:09:05.918Z,13.90
2018-04-22T11:11:32.130Z,11.80
2018-04-22T11:13:59.063Z,12.80
2018-04-22T11:16:25.261Z,14.80
2018-04-22T11:18:51.543Z,10.83
2018-04-22T11:21:18.491Z,11.00
2018-04-22T11:23:45.483Z,10.43
2018-04-22T11:26:11.724Z,10.80
2018-04-22T11:28:37.922Z,13.83
2018-04-22T11:31:04.387Z,12.07
2018-04-22T11:33:30.639Z,12.30
2018-04-22T11:35:57.569Z,12.50
2018-04-22T11:38:23.841Z,11.40
2018-04-22T11:40:50.036Z,10.17
2018-04-22T11:43:16.231Z,12.53
2018-04-22T11:45:42.435Z,13.10
2018-04-22T11:48:08.660Z,10.77
2018-04-22T11:50:34.884Z,11.00
2018-04-22T11:53:01.141Z,10.67
2018-04-22T11:55:27.350Z,12.10
2018-04-22T11:57:53.567Z,10.17
2018-04-22T12:00:20.529Z,9.27
2018-04-22T12:02:46.795Z,10.10
2018-04-22T12:05:13.008Z,8.73
2018-04-22T12:07:39.192Z,8.20
2018-04-22T12:10:06.160Z,9.00
2018-04-22T12:12:32.803Z,8.20
2018-04-22T12:14:58.977Z,7.93
2018-04-22T12:17:25.105Z,8.13
2018-04-22T12:19:51.312Z,7.97
2018-04-22T12:22:17.476Z,8.43
2018-04-22T12:24:44.436Z,7.87
2018-04-22T12:27:11.363Z,7.70
2018-04-22T12:29:38.361Z,8.13
2018-04-22T12:32:04.629Z,8.43
2018-04-22T12:34:30.842Z,8.80
2018-04-22T12:36:57.063Z,7.90
2018-04-22T12:39:23.242Z,9.70
2018-04-22T12:41:49.436Z,9.13
2018-04-22T12:44:15.698Z,9.90
2018-04-22T12:46:42.666Z,9.07
2018-04-22T12:49:08.907Z,8.90
2018-04-22T12:51:35.129Z,9.23
2018-04-22T12:54:01.408Z,8.60
2018-04-22T12:56:27.609Z,8.27
2018-04-22T12:58:53.814Z,9.57
2018-04-22T13:01:20.097Z,10.13
2018-04-22T13:03:46.364Z,8.13
2018-04-22T13:06:12.579Z,8.83
2018-04-22T13:08:39.539Z,8.23
2018-04-22T13:11:06.645Z,8.83
2018-04-22T13:13:33.768Z,8.30
2018-04-22T13:16:00.536Z,8.10
2018-04-22T13:18:27.520Z,9.67
2018-04-22T13:20:54.714Z,9.73
2018-04-22T13:23:20.922Z,8.93
2018-04-22T13:25:47.903Z,8.23
2018-04-22T13:28:14.125Z,10.87
2018-04-22T13:30:40.329Z,9.90
2018-04-22T13:33:06.529Z,9.77
2018-04-22T13:35:33.504Z,9.80
2018-04-22T13:37:59.731Z,9.30
2018-04-22T13:40:25.974Z,9.60
2018-04-22T13:42:52.941Z,10.07
2018-04-22T13:45:19.085Z,9.63
2018-04-22T13:47:45.326Z,11.10
2018-04-22T13:50:13.059Z,11.73
2018-04-22T13:52:40.015Z,12.53
2018-04-22T13:55:06.233Z,10.67
2018-04-22T13:57:32.454Z,13.97
2018-04-22T13:59:58.683Z,9.90
2018-04-22T14:02:24.942Z,10.30
2018-04-22T14:04:51.140Z,9.00
2018-04-22T14:07:18.040Z,11.70
2018-04-22T14:09:45.110Z,9.07
2018-04-22T14:12:11.345Z,9.30
2018-04-22T14:14:37.537Z,9.87
2018-04-22T14:17:05.553Z,9.00
2018-04-22T14:19:31.801Z,8.50
2018-04-22T14:21:58.029Z,8.80
2018-04-22T14:24:25.058Z,8.50
2018-04-22T14:26:51.272Z,9.23
2018-04-22T14:29:17.481Z,9.60
2018-04-22T14:31:43.687Z,8.67
2018-04-22T14:34:09.904Z,8.07
2018-04-22T14:36:36.144Z,8.70
2018-04-22T14:39:03.169Z,9.30
2018-04-22T14:41:29.379Z,8.80
2018-04-22T14:44:08.046Z,8.37
2018-04-22T14:46:35.108Z,8.03
2018-04-22T14:49:03.972Z,8.00
2018-04-22T14:51:30.217Z,7.47
2018-04-22T14:53:57.180Z,6.13
2018-04-22T14:56:24.226Z,5.33
2018-04-22T14:58:51.185Z,5.70
2018-04-22T15:01:17.443Z,5.07
2018-04-22T15:03:43.691Z,5.87
2018-04-22T15:06:09.892Z,5.00
2018-04-22T15:08:36.114Z,5.23
2018-04-22T15:11:02.331Z,4.60
2018-04-22T15:13:28.565Z,5.60
2018-04-22T15:15:54.762Z,4.90
2018-04-22T15:18:21.721Z,4.80
2018-04-22T15:20:48.713Z,5.20
2018-04-22T15:23:14.957Z,4.73
2018-04-22T15:25:41.156Z,5.27
2018-04-22T15:28:07.380Z,5.23
2018-04-22T15:30:33.591Z,5.30
2018-04-22T15:33:00.656Z,5.30
2018-04-22T15:35:26.844Z,5.17
2018-04-22T15:37:53.800Z,4.60
2018-04-22T15:40:20.742Z,5.03
2018-04-22T15:42:47.709Z,4.60
2018-04-22T15:45:13.944Z,4.83
2018-04-22T15:47:40.180Z,5.00
2018-04-22T15:50:06.408Z,5.10
2018-04-22T15:52:33.341Z,5.00
2018-04-22T15:55:00.884Z,5.10
2018-04-22T15:57:27.101Z,5.10
2018-04-22T15:59:55.338Z,4.00
2018-04-22T16:02:21.533Z,4.37
2018-04-22T16:04:47.752Z,4.37
2018-04-22T16:07:14.742Z,4.90
2018-04-22T16:09:40.933Z,4.60
2018-04-22T16:12:07.891Z,4.83
2018-04-22T16:14:34.183Z,4.60
2018-04-22T16:17:00.349Z,4.97
2018-04-22T16:19:26.600Z,5.83
2018-04-22T16:21:52.774Z,5.30
2018-04-22T16:24:19.692Z,12.90
2018-04-22T16:26:45.915Z,8.23
2018-04-22T16:29:12.126Z,30.63
2018-04-22T16:31:38.419Z,10.53
2018-04-22T16:34:05.393Z,18.97
2018-04-22T16:36:31.593Z,12.17
2018-04-22T16:38:58.559Z,11.33
2018-04-22T16:41:24.785Z,6.90
2018-04-22T16:43:50.958Z,6.67
2018-04-22T16:46:17.905Z,7.10
2018-04-22T16:48:44.911Z,4.50
2018-04-22T16:51:11.182Z,6.83
2018-04-22T16:53:37.434Z,4.87
2018-04-22T16:56:18.525Z,4.83
2018-04-22T16:58:45.495Z,4.93
2018-04-22T17:01:11.760Z,6.10
2018-04-22T17:03:37.927Z,4.83
2018-04-22T17:06:04.881Z,5.43
2018-04-22T17:08:31.094Z,5.13
2018-04-22T17:10:58.101Z,5.00
2018-04-22T17:13:24.311Z,5.40
2018-04-22T17:15:50.550Z,5.20
2018-04-22T17:18:16.835Z,4.93
2018-04-22T17:20:43.778Z,4.57
2018-04-22T17:23:10.716Z,5.43
2018-04-22T17:25:36.977Z,5.33
2018-04-22T17:28:03.208Z,4.47
2018-04-22T17:30:29.503Z,4.80
2018-04-22T17:32:55.740Z,4.87
2018-04-22T17:35:22.663Z,5.07
2018-04-22T17:37:48.874Z,4.60
2018-04-22T17:40:15.161Z,4.20
2018-04-22T17:42:42.174Z,4.73
2018-04-22T17:45:10.172Z,4.90
2018-04-22T17:47:37.132Z,4.33
2018-04-22T17:50:03.334Z,4.90
2018-04-22T17:52:30.287Z,4.30
2018-04-22T17:54:57.300Z,5.07
2018-04-22T17:57:23.544Z,4.40
2018-04-22T17:59:49.902Z,4.43
2018-04-22T18:02:16.191Z,4.00
2018-04-22T18:04:42.459Z,4.33
2018-04-22T18:07:15.661Z,5.43
2018-04-22T18:09:41.900Z,6.63
2018-04-22T18:12:08.246Z,4.50
2018-04-22T18:14:34.510Z,4.33
2018-04-22T18:17:00.858Z,4.60
2018-04-22T18:19:27.115Z,3.43
2018-04-22T18:21:53.581Z,4.07
2018-04-22T18:24:19.823Z,4.50
2018-04-22T18:26:46.505Z,4.40
2018-04-22T18:29:13.469Z,5.27
2018-04-22T18:31:39.754Z,6.20
2018-04-22T18:34:06.001Z,4.80
2018-04-22T18:36:32.191Z,4.47
2018-04-22T18:38:59.516Z,4.20
2018-04-22T18:41:25.729Z,5.30
2018-04-22T18:43:52.684Z,4.77
2018-04-22T18:46:20.813Z,4.37
2018-04-22T18:48:47.143Z,4.20
2018-04-22T18:51:13.377Z,4.97
2018-04-22T18:53:40.345Z,4.30
2018-04-22T18:56:07.552Z,4.70
2018-04-22T18:58:33.802Z,4.60
2018-04-22T19:01:00.180Z,5.03
2018-04-22T19:03:26.467Z,3.67
2018-04-22T19:05:53.358Z,4.57
2018-04-22T19:08:19.783Z,4.60
2018-04-22T19:10:46.744Z,4.20
2018-04-22T19:13:13.970Z,3.93
2018-04-22T19:15:41.674Z,3.60
2018-04-22T19:18:10.740Z,4.17
2018-04-22T19:20:37.788Z,3.97
2018-04-22T19:23:04.997Z,4.30
2018-04-22T19:25:31.538Z,4.73
2018-04-22T19:27:57.789Z,4.77
2018-04-22T19:30:24.784Z,4.30
2018-04-22T19:32:50.974Z,4.80
2018-04-22T19:35:18.937Z,4.03
2018-04-22T19:37:45.886Z,4.67
2018-04-22T19:40:12.847Z,4.67
2018-04-22T19:42:39.154Z,4.07
2018-04-22T19:45:06.116Z,4.30
2018-04-22T19:47:33.157Z,4.77
2018-04-22T19:50:00.318Z,4.90
2018-04-22T19:52:27.397Z,4.53
2018-04-22T19:54:53.577Z,4.70
2018-04-22T19:57:20.684Z,3.87
2018-04-22T19:59:46.938Z,5.73
2018-04-22T20:02:13.354Z,3.93
2018-04-22T20:04:39.600Z,5.10
2018-04-22T20:07:05.820Z,4.90
2018-04-22T20:09:32.028Z,4.80
2018-04-22T20:11:58.404Z,4.87
2018-04-22T20:14:24.646Z,5.40
2018-04-22T20:16:51.637Z,5.90
2018-04-22T20:19:17.907Z,5.70
2018-04-22T20:21:45.470Z,5.20
2018-04-22T20:24:14.021Z,7.77
2018-04-22T20:26:43.396Z,5.77
2018-04-22T20:29:09.851Z,5.50
2018-04-22T20:31:36.083Z,5.33
2018-04-22T20:34:03.300Z,5.97
2018-04-22T20:36:29.482Z,6.67
2018-04-22T20:38:55.759Z,4.90
2018-04-22T20:41:23.105Z,5.40
2018-04-22T20:43:50.295Z,6.00
2018-04-22T20:46:16.544Z,5.27
2018-04-22T20:48:42.794Z,4.87
2018-04-22T20:51:09.413Z,5.53
2018-04-22T20:53:36.423Z,6.53
2018-04-22T20:56:02.636Z,5.87
2018-04-22T20:58:29.599Z,5.83
2018-04-22T21:00:55.755Z,5.80
2018-04-22T21:03:21.949Z,5.37
2018-04-22T21:05:49.771Z,5.67
2018-04-22T21:08:16.052Z,5.23
2018-04-22T21:10:42.304Z,5.70
2018-04-22T21:13:10.385Z,5.40
2018-04-22T21:15:36.662Z,5.70
2018-04-22T21:18:02.893Z,6.13
2018-04-22T21:20:29.882Z,5.67
2018-04-22T21:22:56.060Z,5.40
2018-04-22T21:25:23.135Z,5.67
2018-04-22T21:27:49.413Z,5.80
2018-04-22T21:30:15.690Z,6.13
2018-04-22T21:32:41.877Z,5.57
2018-04-22T21:35:08.043Z,5.50
2018-04-22T21:37:34.270Z,6.77
2018-04-22T21:40:00.450Z,6.47
2018-04-22T21:42:26.627Z,6.10
2018-04-22T21:44:52.807Z,6.60
2018-04-22T21:47:19.020Z,6.00
2018-04-22T21:49:45.197Z,5.80
2018-04-22T21:52:12.718Z,5.30
2018-04-22T21:54:38.970Z,5.80
2018-04-22T21:57:05.148Z,6.13
2018-04-22T21:59:31.340Z,6.37
2018-04-22T22:01:58.286Z,5.87
2018-04-22T22:04:25.286Z,7.00
2018-04-22T22:06:51.441Z,6.60
2018-04-22T22:09:19.007Z,6.43
2018-04-22T22:11:45.214Z,6.23
2018-04-22T22:14:11.474Z,5.20
2018-04-22T22:16:38.395Z,6.10
2018-04-22T22:19:04.774Z,5.60
2018-04-22T22:21:30.967Z,6.73
2018-04-22T22:23:57.148Z,5.57
2018-04-22T22:26:23.338Z,5.90
2018-04-22T22:28:51.164Z,6.37
2018-04-22T22:31:17.897Z,6.40
2018-04-22T22:33:44.064Z,6.17
2018-04-22T22:36:10.264Z,6.27
2018-04-22T22:38:36.476Z,5.53
2018-04-22T22:41:03.152Z,6.03
2018-04-22T22:43:29.315Z,5.80
2018-04-22T22:45:55.490Z,5.90
2018-04-22T22:48:22.600Z,5.27
2018-04-22T22:50:48.797Z,5.40
2018-04-22T22:53:15.728Z,6.60
2018-04-22T22:55:42.646Z,6.37
2018-04-22T22:58:08.816Z,6.97
2018-04-22T23:00:34.991Z,6.23
2018-04-22T23:03:01.226Z,6.13
2018-04-22T23:05:27.436Z,6.00
2018-04-22T23:07:53.676Z,5.93
2018-04-22T23:10:19.892Z,6.73
2018-04-22T23:12:46.724Z,5.40
2018-04-22T23:15:13.672Z,5.80
2018-04-22T23:17:40.897Z,7.27
2018-04-22T23:20:07.102Z,5.47
2018-04-22T23:22:33.292Z,6.50
2018-04-22T23:24:59.542Z,6.10
2018-04-22T23:27:25.741Z,6.00
2018-04-22T23:29:52.950Z,6.50
2018-04-22T23:32:19.164Z,6.80
2018-04-22T23:34:45.412Z,6.27
2018-04-22T23:37:11.576Z,6.50
2018-04-22T23:39:38.478Z,6.60
2018-04-22T23:42:04.681Z,6.60
2018-04-22T23:44:45.823Z,7.00
2018-04-22T23:49:48.242Z,5.80
2018-04-22T23:52:14.457Z,5.97
2018-04-22T23:54:41.038Z,6.93
2018-04-22T23:57:07.255Z,5.87
2018-04-22T23:59:33.441Z,5.90
